sensor_id;sensor_type;location;lat;lon;timestamp;temperature;humidity
6536;DHT22;77310;52.08014426;5.40977955;2024-03-22T00:00:58;14.80;93.00
6536;DHT22;77310;52.08014426;5.40977955;2024-03-22T00:03:25;14.80;93.00
6536;DHT22;77310;52.08014426;5.40977955;2024-03-22T00:05:52;14.80;93.10
6536;DHT22;77310;52.08014426;5.40977955;2024-03-22T00:08:18;14.80;93.00
6536;DHT22;77310;52.08014426;5.40977955;2024-03-22T00:10:45;14.90;93.10
6536;DHT22;77310;52.08014426;5.40977955;2024-03-22T00:13:11;14.80;93.10
6536;DHT22;77310;52.08014426;5.40977955;2024-03-22T00:15:38;14.90;93.20
6536;DHT22;77310;52.08014426;5.40977955;2024-03-22T00:18:04;14.90;93.20
6536;DHT22;77310;52.08014426;5.40977955;2024-03-22T00:20:32;14.90;93.30
6536;DHT22;77310;52.08014426;5.40977955;2024-03-22T00:22:58;14.90;93.30
6536;DHT22;77310;52.08014426;5.40977955;2024-03-22T00:25:25;14.90;93.40
6536;DHT22;77310;52.08014426;5.40977955;2024-03-22T00:27:51;14.90;93.40
6536;DHT22;77310;52.08014426;5.40977955;2024-03-22T00:30:19;14.90;93.40
6536;DHT22;77310;52.08014426;5.40977955;2024-03-22T00:32:45;14.70;93.30
6536;DHT22;77310;52.08014426;5.40977955;2024-03-22T00:35:13;14.90;93.50
6536;DHT22;77310;52.08014426;5.40977955;2024-03-22T00:37:40;14.90;93.40
6536;DHT22;77310;52.08014426;5.40977955;2024-03-22T00:40:07;14.90;93.50
6536;DHT22;77310;52.08014426;5.40977955;2024-03-22T00:42:34;14.90;93.60
6536;DHT22;77310;52.08014426;5.40977955;2024-03-22T00:45:00;14.90;93.60
6536;DHT22;77310;52.08014426;5.40977955;2024-03-22T00:47:26;14.90;93.60
6536;DHT22;77310;52.08014426;5.40977955;2024-03-22T00:49:53;14.90;93.60
6536;DHT22;77310;52.08014426;5.40977955;2024-03-22T00:52:19;14.90;93.60
6536;DHT22;77310;52.08014426;5.40977955;2024-03-22T00:54:48;14.90;93.70
6536;DHT22;77310;52.08014426;5.40977955;2024-03-22T00:57:14;14.90;94.10
6536;DHT22;77310;52.08014426;5.40977955;2024-03-22T00:59:41;14.90;93.80
6536;DHT22;77310;52.08014426;5.40977955;2024-03-22T01:02:07;14.90;93.70
6536;DHT22;77310;52.08014426;5.40977955;2024-03-22T01:04:34;14.90;93.90
6536;DHT22;77310;52.08014426;5.40977955;2024-03-22T01:07:00;14.90;93.90
6536;DHT22;77310;52.08014426;5.40977955;2024-03-22T01:09:27;14.90;93.90
6536;DHT22;77310;52.08014426;5.40977955;2024-03-22T01:11:54;14.90;94.00
6536;DHT22;77310;52.08014426;5.40977955;2024-03-22T01:14:21;16.60;94.70
6536;DHT22;77310;52.08014426;5.40977955;2024-03-22T01:16:47;14.90;94.00
6536;DHT22;77310;52.08014426;5.40977955;2024-03-22T01:19:14;14.90;94.10
6536;DHT22;77310;52.08014426;5.40977955;2024-03-22T01:21:40;14.80;94.10
6536;DHT22;77310;52.08014426;5.40977955;2024-03-22T01:24:07;14.80;94.10
6536;DHT22;77310;52.08014426;5.40977955;2024-03-22T01:26:33;14.80;94.10
6536;DHT22;77310;52.08014426;5.40977955;2024-03-22T01:29:01;14.80;94.20
6536;DHT22;77310;52.08014426;5.40977955;2024-03-22T01:31:27;14.80;94.20
6536;DHT22;77310;52.08014426;5.40977955;2024-03-22T01:33:54;14.80;94.20
6536;DHT22;77310;52.08014426;5.40977955;2024-03-22T01:36:21;14.80;94.10
6536;DHT22;77310;52.08014426;5.40977955;2024-03-22T01:38:48;14.80;94.30
6536;DHT22;77310;52.08014426;5.40977955;2024-03-22T01:41:14;14.80;94.30
6536;DHT22;77310;52.08014426;5.40977955;2024-03-22T01:54:45;14.80;94.70
6536;DHT22;77310;52.08014426;5.40977955;2024-03-22T01:57:12;14.80;94.50
6536;DHT22;77310;52.08014426;5.40977955;2024-03-22T01:59:39;14.80;94.50
6536;DHT22;77310;52.08014426;5.40977955;2024-03-22T02:02:06;14.80;94.70
6536;DHT22;77310;52.08014426;5.40977955;2024-03-22T02:04:32;14.80;94.70
6536;DHT22;77310;52.08014426;5.40977955;2024-03-22T02:06:59;14.80;94.80
6536;DHT22;77310;52.08014426;5.40977955;2024-03-22T02:09:25;14.80;94.70
6536;DHT22;77310;52.08014426;5.40977955;2024-03-22T02:11:54;14.80;94.80
6536;DHT22;77310;52.08014426;5.40977955;2024-03-22T02:14:20;14.80;94.90
6536;DHT22;77310;52.08014426;5.40977955;2024-03-22T02:16:47;14.80;94.90
6536;DHT22;77310;52.08014426;5.40977955;2024-03-22T02:19:14;14.80;94.90
6536;DHT22;77310;52.08014426;5.40977955;2024-03-22T02:21:41;14.80;94.90
6536;DHT22;77310;52.08014426;5.40977955;2024-03-22T02:24:08;14.80;94.80
6536;DHT22;77310;52.08014426;5.40977955;2024-03-22T02:26:35;14.90;95.00
6536;DHT22;77310;52.08014426;5.40977955;2024-03-22T02:29:01;14.80;94.90
6536;DHT22;77310;52.08014426;5.40977955;2024-03-22T02:31:28;14.90;94.90
6536;DHT22;77310;52.08014426;5.40977955;2024-03-22T02:33:54;14.90;95.00
6536;DHT22;77310;52.08014426;5.40977955;2024-03-22T02:36:21;14.90;95.00
6536;DHT22;77310;52.08014426;5.40977955;2024-03-22T02:38:47;14.90;94.90
6536;DHT22;77310;52.08014426;5.40977955;2024-03-22T02:41:16;14.90;95.00
6536;DHT22;77310;52.08014426;5.40977955;2024-03-22T02:43:41;14.90;95.00
6536;DHT22;77310;52.08014426;5.40977955;2024-03-22T02:46:08;14.90;94.80
6536;DHT22;77310;52.08014426;5.40977955;2024-03-22T02:48:34;14.90;94.80
6536;DHT22;77310;52.08014426;5.40977955;2024-03-22T02:51:01;14.90;94.60
6536;DHT22;77310;52.08014426;5.40977955;2024-03-22T02:53:28;14.90;94.50
6536;DHT22;77310;52.08014426;5.40977955;2024-03-22T02:55:54;14.80;94.40
6536;DHT22;77310;52.08014426;5.40977955;2024-03-22T02:58:24;14.80;94.20
6536;DHT22;77310;52.08014426;5.40977955;2024-03-22T03:00:51;14.80;94.30
6536;DHT22;77310;52.08014426;5.40977955;2024-03-22T03:03:17;14.70;94.20
6536;DHT22;77310;52.08014426;5.40977955;2024-03-22T03:05:47;14.70;94.10
6536;DHT22;77310;52.08014426;5.40977955;2024-03-22T03:08:14;14.70;93.90
6536;DHT22;77310;52.08014426;5.40977955;2024-03-22T03:10:41;14.60;94.00
6536;DHT22;77310;52.08014426;5.40977955;2024-03-22T03:13:07;14.60;94.00
6536;DHT22;77310;52.08014426;5.40977955;2024-03-22T03:15:35;14.60;94.10
6536;DHT22;77310;52.08014426;5.40977955;2024-03-22T03:18:01;14.50;94.10
6536;DHT22;77310;52.08014426;5.40977955;2024-03-22T03:20:28;14.50;94.20
6536;DHT22;77310;52.08014426;5.40977955;2024-03-22T03:22:54;14.50;94.10
6536;DHT22;77310;52.08014426;5.40977955;2024-03-22T03:25:23;14.50;94.20
6536;DHT22;77310;52.08014426;5.40977955;2024-03-22T03:27:49;14.50;94.10
6536;DHT22;77310;52.08014426;5.40977955;2024-03-22T03:30:16;14.40;94.20
6536;DHT22;77310;52.08014426;5.40977955;2024-03-22T03:32:44;14.40;94.20
6536;DHT22;77310;52.08014426;5.40977955;2024-03-22T03:35:11;14.40;94.30
6536;DHT22;77310;52.08014426;5.40977955;2024-03-22T03:37:37;14.40;94.40
6536;DHT22;77310;52.08014426;5.40977955;2024-03-22T03:40:05;14.40;94.40
6536;DHT22;77310;52.08014426;5.40977955;2024-03-22T03:42:31;14.30;94.40
6536;DHT22;77310;52.08014426;5.40977955;2024-03-22T03:44:58;14.30;94.40
6536;DHT22;77310;52.08014426;5.40977955;2024-03-22T03:47:24;14.30;94.40
6536;DHT22;77310;52.08014426;5.40977955;2024-03-22T03:49:53;14.30;94.40
6536;DHT22;77310;52.08014426;5.40977955;2024-03-22T03:52:19;14.40;94.40
6536;DHT22;77310;52.08014426;5.40977955;2024-03-22T03:54:46;14.40;94.30
6536;DHT22;77310;52.08014426;5.40977955;2024-03-22T03:57:12;14.30;94.10
6536;DHT22;77310;52.08014426;5.40977955;2024-03-22T03:59:39;14.30;94.20
6536;DHT22;77310;52.08014426;5.40977955;2024-03-22T04:02:05;14.30;94.20
6536;DHT22;77310;52.08014426;5.40977955;2024-03-22T04:04:32;14.20;94.20
6536;DHT22;77310;52.08014426;5.40977955;2024-03-22T04:06:59;14.30;94.40
6536;DHT22;77310;52.08014426;5.40977955;2024-03-22T04:09:26;14.20;94.10
6536;DHT22;77310;52.08014426;5.40977955;2024-03-22T04:11:52;14.20;94.10
6536;DHT22;77310;52.08014426;5.40977955;2024-03-22T04:14:19;14.20;94.20
6536;DHT22;77310;52.08014426;5.40977955;2024-03-22T04:16:45;14.20;94.00
6536;DHT22;77310;52.08014426;5.40977955;2024-03-22T04:19:13;14.10;94.20
6536;DHT22;77310;52.08014426;5.40977955;2024-03-22T04:21:39;14.20;94.20
6536;DHT22;77310;52.08014426;5.40977955;2024-03-22T04:24:07;14.10;94.20
6536;DHT22;77310;52.08014426;5.40977955;2024-03-22T04:26:33;14.10;94.40
6536;DHT22;77310;52.08014426;5.40977955;2024-03-22T04:29:00;14.10;94.30
6536;DHT22;77310;52.08014426;5.40977955;2024-03-22T04:31:26;14.10;94.30
6536;DHT22;77310;52.08014426;5.40977955;2024-03-22T04:33:53;14.10;94.70
6536;DHT22;77310;52.08014426;5.40977955;2024-03-22T04:36:19;14.10;94.30
6536;DHT22;77310;52.08014426;5.40977955;2024-03-22T04:38:46;14.10;94.40
6536;DHT22;77310;52.08014426;5.40977955;2024-03-22T04:41:15;14.00;94.40
6536;DHT22;77310;52.08014426;5.40977955;2024-03-22T04:43:42;14.00;94.40
6536;DHT22;77310;52.08014426;5.40977955;2024-03-22T04:46:10;14.00;94.40
6536;DHT22;77310;52.08014426;5.40977955;2024-03-22T04:48:36;14.00;94.30
6536;DHT22;77310;52.08014426;5.40977955;2024-03-22T04:51:03;13.90;94.30
6536;DHT22;77310;52.08014426;5.40977955;2024-03-22T04:53:29;13.90;94.30
6536;DHT22;77310;52.08014426;5.40977955;2024-03-22T04:55:56;13.90;94.30
6536;DHT22;77310;52.08014426;5.40977955;2024-03-22T04:58:23;13.90;94.50
6536;DHT22;77310;52.08014426;5.40977955;2024-03-22T05:00:57;13.90;94.50
6536;DHT22;77310;52.08014426;5.40977955;2024-03-22T05:03:23;13.90;94.70
6536;DHT22;77310;52.08014426;5.40977955;2024-03-22T05:05:50;13.90;94.60
6536;DHT22;77310;52.08014426;5.40977955;2024-03-22T05:08:16;13.90;94.60
6536;DHT22;77310;52.08014426;5.40977955;2024-03-22T05:10:43;13.80;94.50
6536;DHT22;77310;52.08014426;5.40977955;2024-03-22T05:13:09;13.90;94.60
6536;DHT22;77310;52.08014426;5.40977955;2024-03-22T05:15:38;13.80;94.60
6536;DHT22;77310;52.08014426;5.40977955;2024-03-22T05:18:05;13.80;94.60
6536;DHT22;77310;52.08014426;5.40977955;2024-03-22T05:20:31;13.80;94.60
6536;DHT22;77310;52.08014426;5.40977955;2024-03-22T05:22:58;13.80;94.60
6536;DHT22;77310;52.08014426;5.40977955;2024-03-22T05:25:24;13.80;94.70
6536;DHT22;77310;52.08014426;5.40977955;2024-03-22T05:27:51;13.80;94.70
6536;DHT22;77310;52.08014426;5.40977955;2024-03-22T05:30:17;13.80;94.70
6536;DHT22;77310;52.08014426;5.40977955;2024-03-22T05:32:49;13.70;94.60
6536;DHT22;77310;52.08014426;5.40977955;2024-03-22T05:35:16;13.70;94.70
6536;DHT22;77310;52.08014426;5.40977955;2024-03-22T05:37:44;13.70;94.60
6536;DHT22;77310;52.08014426;5.40977955;2024-03-22T05:40:12;13.70;94.60
6536;DHT22;77310;52.08014426;5.40977955;2024-03-22T05:42:40;13.70;94.50
6536;DHT22;77310;52.08014426;5.40977955;2024-03-22T05:45:06;13.70;94.80
6536;DHT22;77310;52.08014426;5.40977955;2024-03-22T05:47:33;13.70;94.60
6536;DHT22;77310;52.08014426;5.40977955;2024-03-22T05:50:01;13.70;94.60
6536;DHT22;77310;52.08014426;5.40977955;2024-03-22T05:52:28;13.70;94.70
6536;DHT22;77310;52.08014426;5.40977955;2024-03-22T05:54:54;13.60;94.60
6536;DHT22;77310;52.08014426;5.40977955;2024-03-22T05:57:22;13.70;94.70
6536;DHT22;77310;52.08014426;5.40977955;2024-03-22T05:59:48;13.70;94.60
6536;DHT22;77310;52.08014426;5.40977955;2024-03-22T06:02:15;13.60;94.70
6536;DHT22;77310;52.08014426;5.40977955;2024-03-22T06:04:42;13.60;94.70
6536;DHT22;77310;52.08014426;5.40977955;2024-03-22T06:07:10;13.60;94.70
6536;DHT22;77310;52.08014426;5.40977955;2024-03-22T06:09:36;13.60;94.70
6536;DHT22;77310;52.08014426;5.40977955;2024-03-22T06:12:11;13.60;94.70
6536;DHT22;77310;52.08014426;5.40977955;2024-03-22T06:14:37;13.70;94.70
6536;DHT22;77310;52.08014426;5.40977955;2024-03-22T06:17:04;13.60;94.70
6536;DHT22;77310;52.08014426;5.40977955;2024-03-22T06:19:30;13.60;94.70
6536;DHT22;77310;52.08014426;5.40977955;2024-03-22T06:21:58;13.60;94.60
6536;DHT22;77310;52.08014426;5.40977955;2024-03-22T06:24:25;13.70;94.70
6536;DHT22;77310;52.08014426;5.40977955;2024-03-22T06:26:52;13.70;94.70
6536;DHT22;77310;52.08014426;5.40977955;2024-03-22T06:29:19;13.60;94.60
6536;DHT22;77310;52.08014426;5.40977955;2024-03-22T06:31:46;13.60;94.70
6536;DHT22;77310;52.08014426;5.40977955;2024-03-22T06:34:12;13.60;94.70
6536;DHT22;77310;52.08014426;5.40977955;2024-03-22T06:36:39;13.60;94.70
6536;DHT22;77310;52.08014426;5.40977955;2024-03-22T06:39:05;13.70;94.70
6536;DHT22;77310;52.08014426;5.40977955;2024-03-22T06:41:37;13.60;94.70
6536;DHT22;77310;52.08014426;5.40977955;2024-03-22T06:44:03;13.70;94.70
6536;DHT22;77310;52.08014426;5.40977955;2024-03-22T06:46:30;13.70;95.00
6536;DHT22;77310;52.08014426;5.40977955;2024-03-22T06:48:58;13.10;94.40
6536;DHT22;77310;52.08014426;5.40977955;2024-03-22T06:51:25;13.70;94.80
6536;DHT22;77310;52.08014426;5.40977955;2024-03-22T06:53:51;13.70;94.70
6536;DHT22;77310;52.08014426;5.40977955;2024-03-22T06:56:18;13.70;95.00
6536;DHT22;77310;52.08014426;5.40977955;2024-03-22T06:58:46;13.70;94.60
6536;DHT22;77310;52.08014426;5.40977955;2024-03-22T07:01:13;13.70;94.80
6536;DHT22;77310;52.08014426;5.40977955;2024-03-22T07:03:39;13.80;94.80
6536;DHT22;77310;52.08014426;5.40977955;2024-03-22T07:06:06;13.80;94.90
6536;DHT22;77310;52.08014426;5.40977955;2024-03-22T07:08:34;13.80;94.80
6536;DHT22;77310;52.08014426;5.40977955;2024-03-22T07:11:05;13.80;94.80
6536;DHT22;77310;52.08014426;5.40977955;2024-03-22T07:13:31;13.90;94.90
6536;DHT22;77310;52.08014426;5.40977955;2024-03-22T07:16:00;13.90;94.70
6536;DHT22;77310;52.08014426;5.40977955;2024-03-22T07:18:26;13.90;94.70
6536;DHT22;77310;52.08014426;5.40977955;2024-03-22T07:20:53;13.90;94.70
6536;DHT22;77310;52.08014426;5.40977955;2024-03-22T07:23:19;13.90;94.60
6536;DHT22;77310;52.08014426;5.40977955;2024-03-22T07:25:46;14.00;94.60
6536;DHT22;77310;52.08014426;5.40977955;2024-03-22T07:28:14;14.00;94.60
6536;DHT22;77310;52.08014426;5.40977955;2024-03-22T07:30:41;14.00;94.70
6536;DHT22;77310;52.08014426;5.40977955;2024-03-22T07:33:10;14.00;94.70
6536;DHT22;77310;52.08014426;5.40977955;2024-03-22T07:35:39;14.00;94.60
6536;DHT22;77310;52.08014426;5.40977955;2024-03-22T07:38:05;14.10;94.60
6536;DHT22;77310;52.08014426;5.40977955;2024-03-22T07:40:32;14.10;94.60
6536;DHT22;77310;52.08014426;5.40977955;2024-03-22T07:42:58;14.10;94.60
6536;DHT22;77310;52.08014426;5.40977955;2024-03-22T07:45:25;14.10;94.50
6536;DHT22;77310;52.08014426;5.40977955;2024-03-22T07:47:51;14.10;94.40
6536;DHT22;77310;52.08014426;5.40977955;2024-03-22T07:50:22;14.10;94.40
6536;DHT22;77310;52.08014426;5.40977955;2024-03-22T07:52:49;14.10;94.40
6536;DHT22;77310;52.08014426;5.40977955;2024-03-22T07:55:17;14.10;94.30
6536;DHT22;77310;52.08014426;5.40977955;2024-03-22T07:57:43;14.10;94.30
6536;DHT22;77310;52.08014426;5.40977955;2024-03-22T08:00:10;14.10;94.30
6536;DHT22;77310;52.08014426;5.40977955;2024-03-22T08:02:36;14.10;94.60
6536;DHT22;77310;52.08014426;5.40977955;2024-03-22T08:05:04;14.10;94.20
6536;DHT22;77310;52.08014426;5.40977955;2024-03-22T08:07:32;14.10;94.30
6536;DHT22;77310;52.08014426;5.40977955;2024-03-22T08:09:59;14.10;94.30
6536;DHT22;77310;52.08014426;5.40977955;2024-03-22T08:12:27;14.10;94.30
6536;DHT22;77310;52.08014426;5.40977955;2024-03-22T08:14:54;14.10;94.30
6536;DHT22;77310;52.08014426;5.40977955;2024-03-22T08:17:23;14.10;94.40
6536;DHT22;77310;52.08014426;5.40977955;2024-03-22T08:19:50;14.10;94.40
6536;DHT22;77310;52.08014426;5.40977955;2024-03-22T08:22:16;14.10;94.30
6536;DHT22;77310;52.08014426;5.40977955;2024-03-22T08:24:44;14.10;94.30
6536;DHT22;77310;52.08014426;5.40977955;2024-03-22T08:27:10;14.10;94.40
6536;DHT22;77310;52.08014426;5.40977955;2024-03-22T08:29:37;14.10;94.40
6536;DHT22;77310;52.08014426;5.40977955;2024-03-22T08:32:04;14.10;94.50
6536;DHT22;77310;52.08014426;5.40977955;2024-03-22T08:34:31;14.10;94.60
6536;DHT22;77310;52.08014426;5.40977955;2024-03-22T08:36:58;14.10;94.70
6536;DHT22;77310;52.08014426;5.40977955;2024-03-22T08:39:25;14.10;94.80
6536;DHT22;77310;52.08014426;5.40977955;2024-03-22T08:41:52;14.10;94.80
6536;DHT22;77310;52.08014426;5.40977955;2024-03-22T08:44:20;14.20;95.00
6536;DHT22;77310;52.08014426;5.40977955;2024-03-22T08:46:47;14.20;95.00
6536;DHT22;77310;52.08014426;5.40977955;2024-03-22T08:49:14;14.20;95.10
6536;DHT22;77310;52.08014426;5.40977955;2024-03-22T08:51:40;14.20;95.10
6536;DHT22;77310;52.08014426;5.40977955;2024-03-22T08:54:07;14.20;95.40
6536;DHT22;77310;52.08014426;5.40977955;2024-03-22T08:56:33;14.20;95.20
6536;DHT22;77310;52.08014426;5.40977955;2024-03-22T08:59:01;14.20;95.30
6536;DHT22;77310;52.08014426;5.40977955;2024-03-22T09:01:27;14.10;95.40
6536;DHT22;77310;52.08014426;5.40977955;2024-03-22T09:03:54;14.10;95.40
6536;DHT22;77310;52.08014426;5.40977955;2024-03-22T09:06:20;14.10;95.70
6536;DHT22;77310;52.08014426;5.40977955;2024-03-22T09:08:47;14.10;95.40
6536;DHT22;77310;52.08014426;5.40977955;2024-03-22T09:11:13;14.10;95.50
6536;DHT22;77310;52.08014426;5.40977955;2024-03-22T09:13:40;14.10;95.70
6536;DHT22;77310;52.08014426;5.40977955;2024-03-22T09:16:07;14.10;95.70
6536;DHT22;77310;52.08014426;5.40977955;2024-03-22T09:18:34;14.10;95.80
6536;DHT22;77310;52.08014426;5.40977955;2024-03-22T09:21:01;14.10;95.70
6536;DHT22;77310;52.08014426;5.40977955;2024-03-22T09:23:29;14.10;95.80
6536;DHT22;77310;52.08014426;5.40977955;2024-03-22T09:25:55;14.00;95.90
6536;DHT22;77310;52.08014426;5.40977955;2024-03-22T09:28:22;14.00;95.90
6536;DHT22;77310;52.08014426;5.40977955;2024-03-22T09:30:48;14.10;96.00
6536;DHT22;77310;52.08014426;5.40977955;2024-03-22T09:33:16;14.10;96.00
6536;DHT22;77310;52.08014426;5.40977955;2024-03-22T09:35:43;14.10;96.20
6536;DHT22;77310;52.08014426;5.40977955;2024-03-22T09:38:10;14.00;96.10
6536;DHT22;77310;52.08014426;5.40977955;2024-03-22T09:40:38;14.10;96.20
6536;DHT22;77310;52.08014426;5.40977955;2024-03-22T09:43:06;14.10;96.20
6536;DHT22;77310;52.08014426;5.40977955;2024-03-22T09:45:33;14.10;96.40
6536;DHT22;77310;52.08014426;5.40977955;2024-03-22T09:48:01;14.10;96.40
6536;DHT22;77310;52.08014426;5.40977955;2024-03-22T09:50:29;14.10;96.40
6536;DHT22;77310;52.08014426;5.40977955;2024-03-22T09:52:56;14.10;96.40
6536;DHT22;77310;52.08014426;5.40977955;2024-03-22T09:55:23;14.10;96.40
6536;DHT22;77310;52.08014426;5.40977955;2024-03-22T09:57:51;14.10;96.50
6536;DHT22;77310;52.08014426;5.40977955;2024-03-22T10:00:20;14.10;96.40
6536;DHT22;77310;52.08014426;5.40977955;2024-03-22T10:02:49;14.10;96.50
6536;DHT22;77310;52.08014426;5.40977955;2024-03-22T10:05:15;14.10;96.60
6536;DHT22;77310;52.08014426;5.40977955;2024-03-22T10:07:45;14.10;96.70
6536;DHT22;77310;52.08014426;5.40977955;2024-03-22T10:10:11;14.10;96.70
6536;DHT22;77310;52.08014426;5.40977955;2024-03-22T10:12:39;14.10;96.60
6536;DHT22;77310;52.08014426;5.40977955;2024-03-22T10:15:06;14.10;96.70
6536;DHT22;77310;52.08014426;5.40977955;2024-03-22T10:17:35;14.10;96.70
6536;DHT22;77310;52.08014426;5.40977955;2024-03-22T10:20:01;14.10;96.70
6536;DHT22;77310;52.08014426;5.40977955;2024-03-22T10:22:29;14.10;96.70
6536;DHT22;77310;52.08014426;5.40977955;2024-03-22T10:24:56;14.10;96.80
6536;DHT22;77310;52.08014426;5.40977955;2024-03-22T10:27:27;14.10;96.80
6536;DHT22;77310;52.08014426;5.40977955;2024-03-22T10:29:54;14.10;96.80
6536;DHT22;77310;52.08014426;5.40977955;2024-03-22T10:32:23;14.10;96.70
6536;DHT22;77310;52.08014426;5.40977955;2024-03-22T10:34:50;14.10;97.00
6536;DHT22;77310;52.08014426;5.40977955;2024-03-22T10:37:17;14.10;97.00
6536;DHT22;77310;52.08014426;5.40977955;2024-03-22T10:39:43;14.10;97.10
6536;DHT22;77310;52.08014426;5.40977955;2024-03-22T10:42:12;14.10;97.10
6536;DHT22;77310;52.08014426;5.40977955;2024-03-22T10:44:38;14.10;97.10
6536;DHT22;77310;52.08014426;5.40977955;2024-03-22T10:47:09;14.10;97.00
6536;DHT22;77310;52.08014426;5.40977955;2024-03-22T10:49:37;14.10;97.10
6536;DHT22;77310;52.08014426;5.40977955;2024-03-22T10:52:05;14.10;97.20
6536;DHT22;77310;52.08014426;5.40977955;2024-03-22T10:54:35;14.20;97.50
6536;DHT22;77310;52.08014426;5.40977955;2024-03-22T10:57:05;14.20;97.20
6536;DHT22;77310;52.08014426;5.40977955;2024-03-22T10:59:35;14.20;97.20
6536;DHT22;77310;52.08014426;5.40977955;2024-03-22T11:02:05;14.20;97.30
6536;DHT22;77310;52.08014426;5.40977955;2024-03-22T11:04:33;14.20;97.30
6536;DHT22;77310;52.08014426;5.40977955;2024-03-22T11:07:00;14.20;97.30
6536;DHT22;77310;52.08014426;5.40977955;2024-03-22T11:09:26;14.20;97.30
6536;DHT22;77310;52.08014426;5.40977955;2024-03-22T11:11:55;14.20;97.30
6536;DHT22;77310;52.08014426;5.40977955;2024-03-22T11:14:22;14.20;97.80
6536;DHT22;77310;52.08014426;5.40977955;2024-03-22T11:16:51;14.20;97.70
6536;DHT22;77310;52.08014426;5.40977955;2024-03-22T11:19:18;14.30;97.90
6536;DHT22;77310;52.08014426;5.40977955;2024-03-22T11:21:45;14.30;97.70
6536;DHT22;77310;52.08014426;5.40977955;2024-03-22T11:24:11;14.40;97.80
6536;DHT22;77310;52.08014426;5.40977955;2024-03-22T11:26:38;14.40;97.70
6536;DHT22;77310;52.08014426;5.40977955;2024-03-22T11:29:04;14.40;97.60
6536;DHT22;77310;52.08014426;5.40977955;2024-03-22T11:31:32;14.50;97.70
6536;DHT22;77310;52.08014426;5.40977955;2024-03-22T11:34:00;14.50;97.80
6536;DHT22;77310;52.08014426;5.40977955;2024-03-22T11:36:27;14.50;97.80
6536;DHT22;77310;52.08014426;5.40977955;2024-03-22T11:38:53;14.50;97.80
6536;DHT22;77310;52.08014426;5.40977955;2024-03-22T11:41:24;14.50;97.80
6536;DHT22;77310;52.08014426;5.40977955;2024-03-22T11:43:50;14.60;97.90
6536;DHT22;77310;52.08014426;5.40977955;2024-03-22T11:46:20;14.60;97.80
6536;DHT22;77310;52.08014426;5.40977955;2024-03-22T11:48:51;14.60;97.80
6536;DHT22;77310;52.08014426;5.40977955;2024-03-22T11:51:20;14.60;97.90
6536;DHT22;77310;52.08014426;5.40977955;2024-03-22T11:53:50;14.70;97.90
6536;DHT22;77310;52.08014426;5.40977955;2024-03-22T11:56:20;14.70;97.90
6536;DHT22;77310;52.08014426;5.40977955;2024-03-22T11:58:47;14.70;97.80
6536;DHT22;77310;52.08014426;5.40977955;2024-03-22T12:01:15;14.70;97.70
6536;DHT22;77310;52.08014426;5.40977955;2024-03-22T12:03:43;14.70;97.70
6536;DHT22;77310;52.08014426;5.40977955;2024-03-22T12:06:10;14.70;97.60
6536;DHT22;77310;52.08014426;5.40977955;2024-03-22T12:08:38;14.70;97.50
6536;DHT22;77310;52.08014426;5.40977955;2024-03-22T12:11:07;14.70;97.60
6536;DHT22;77310;52.08014426;5.40977955;2024-03-22T12:13:34;14.80;97.70
6536;DHT22;77310;52.08014426;5.40977955;2024-03-22T12:16:01;14.80;97.50
6536;DHT22;77310;52.08014426;5.40977955;2024-03-22T12:18:27;14.70;97.60
6536;DHT22;77310;52.08014426;5.40977955;2024-03-22T12:20:54;14.70;97.60
6536;DHT22;77310;52.08014426;5.40977955;2024-03-22T12:23:21;14.70;97.50
6536;DHT22;77310;52.08014426;5.40977955;2024-03-22T12:25:51;14.70;97.40
6536;DHT22;77310;52.08014426;5.40977955;2024-03-22T12:28:17;14.70;97.50
6536;DHT22;77310;52.08014426;5.40977955;2024-03-22T12:30:45;14.70;97.50
6536;DHT22;77310;52.08014426;5.40977955;2024-03-22T12:33:11;14.70;97.40
6536;DHT22;77310;52.08014426;5.40977955;2024-03-22T12:35:40;14.70;97.40
6536;DHT22;77310;52.08014426;5.40977955;2024-03-22T12:38:06;14.70;97.50
6536;DHT22;77310;52.08014426;5.40977955;2024-03-22T12:40:34;14.70;97.60
6536;DHT22;77310;52.08014426;5.40977955;2024-03-22T12:43:02;14.70;97.60
6536;DHT22;77310;52.08014426;5.40977955;2024-03-22T12:45:29;14.70;97.60
6536;DHT22;77310;52.08014426;5.40977955;2024-03-22T12:47:55;14.70;97.50
6536;DHT22;77310;52.08014426;5.40977955;2024-03-22T12:50:23;14.70;97.40
6536;DHT22;77310;52.08014426;5.40977955;2024-03-22T12:52:49;14.70;97.40
6536;DHT22;77310;52.08014426;5.40977955;2024-03-22T12:55:16;14.70;97.40
6536;DHT22;77310;52.08014426;5.40977955;2024-03-22T12:57:42;14.70;97.40
6536;DHT22;77310;52.08014426;5.40977955;2024-03-22T13:00:12;14.70;97.50
6536;DHT22;77310;52.08014426;5.40977955;2024-03-22T13:02:39;14.70;97.60
6536;DHT22;77310;52.08014426;5.40977955;2024-03-22T13:05:07;14.70;97.60
6536;DHT22;77310;52.08014426;5.40977955;2024-03-22T13:07:33;14.70;97.70
6536;DHT22;77310;52.08014426;5.40977955;2024-03-22T13:10:00;14.70;97.60
6536;DHT22;77310;52.08014426;5.40977955;2024-03-22T13:12:26;14.70;97.70
6536;DHT22;77310;52.08014426;5.40977955;2024-03-22T13:14:54;14.70;97.70
6536;DHT22;77310;52.08014426;5.40977955;2024-03-22T13:17:22;14.80;97.60
6536;DHT22;77310;52.08014426;5.40977955;2024-03-22T13:19:49;14.80;97.70
6536;DHT22;77310;52.08014426;5.40977955;2024-03-22T13:22:15;14.80;97.60
6536;DHT22;77310;52.08014426;5.40977955;2024-03-22T13:24:44;14.80;97.40
6536;DHT22;77310;52.08014426;5.40977955;2024-03-22T13:27:10;14.80;97.20
6536;DHT22;77310;52.08014426;5.40977955;2024-03-22T13:29:38;14.80;96.90
6536;DHT22;77310;52.08014426;5.40977955;2024-03-22T13:32:04;14.80;96.80
6536;DHT22;77310;52.08014426;5.40977955;2024-03-22T13:34:34;14.80;97.00
6536;DHT22;77310;52.08014426;5.40977955;2024-03-22T13:37:00;14.80;96.90
6536;DHT22;77310;52.08014426;5.40977955;2024-03-22T13:39:27;14.20;96.60
6536;DHT22;77310;52.08014426;5.40977955;2024-03-22T13:42:00;14.80;96.80
6536;DHT22;77310;52.08014426;5.40977955;2024-03-22T13:44:27;14.70;96.90